createdAt,value
2023-02-14T00:01:02.481Z,2.39
2023-02-14T00:03:34.822Z,2.63
2023-02-14T00:06:30.165Z,2.84
2023-02-14T00:09:17.118Z,2.26
2023-02-14T00:11:59.808Z,2.39
2023-02-14T00:15:05.213Z,2.45
2023-02-14T00:18:03.617Z,2.26
2023-02-14T00:21:07.753Z,2.74
2023-02-14T00:23:49.706Z,2.49
2023-02-14T00:27:06.056Z,2.32
2023-02-14T00:33:11.135Z,2.40
2023-02-14T00:40:22.154Z,1.90
2023-02-14T00:48:00.200Z,1.82
2023-02-14T00:50:03.222Z,2.33
2023-02-14T00:52:59.478Z,1.86
2023-02-14T00:55:27.607Z,2.44
2023-02-14T00:58:00.448Z,2.19
2023-02-14T01:00:30.675Z,2.14
2023-02-14T01:03:28.341Z,1.79
2023-02-14T01:06:23.256Z,2.15
2023-02-14T01:09:12.177Z,1.82
2023-02-14T01:11:49.439Z,1.66
2023-02-14T01:14:22.826Z,1.99
2023-02-14T01:16:58.165Z,2.03
2023-02-14T01:19:28.087Z,1.72
2023-02-14T01:21:57.861Z,1.99
2023-02-14T01:24:48.039Z,2.07
2023-02-14T01:30:34.642Z,1.85
2023-02-14T01:33:20.812Z,1.53
2023-02-14T01:36:04.993Z,1.52
2023-02-14T01:38:32.063Z,1.71
2023-02-14T01:41:00.815Z,1.72
2023-02-14T01:48:11.485Z,1.45
2023-02-14T01:50:54.727Z,1.40
2023-02-14T01:53:31.773Z,1.46
2023-02-14T01:56:15.160Z,1.61
2023-02-14T01:58:59.481Z,1.53
2023-02-14T02:07:18.059Z,1.86
2023-02-14T02:17:43.231Z,1.24
2023-02-14T02:20:38.403Z,1.47
2023-02-14T02:23:59.989Z,1.12
2023-02-14T02:26:48.425Z,1.70
2023-02-14T02:29:42.744Z,1.68
2023-02-14T02:32:36.513Z,1.66
2023-02-14T02:35:15.322Z,1.50
2023-02-14T02:38:19.425Z,1.62
2023-02-14T02:41:11.358Z,1.44
2023-02-14T02:43:54.305Z,1.07
2023-02-14T02:46:58.989Z,1.61
2023-02-14T02:50:17.745Z,1.61
2023-02-14T02:57:26.376Z,1.16
2023-02-14T02:59:56.114Z,1.05
2023-02-14T03:02:54.731Z,1.27
2023-02-14T03:05:21.994Z,1.28
2023-02-14T03:07:49.665Z,1.18
2023-02-14T03:10:26.155Z,1.24
2023-02-14T03:13:05.477Z,1.43
2023-02-14T03:15:54.643Z,1.42
2023-02-14T03:18:24.337Z,1.42
2023-02-14T03:21:20.283Z,0.95
2023-02-14T03:23:56.370Z,1.23
2023-02-14T03:27:03.993Z,1.38
2023-02-14T03:29:52.750Z,1.12
2023-02-14T03:32:40.106Z,1.31
2023-02-14T03:35:21.817Z,1.22
2023-02-14T03:38:14.423Z,1.19
2023-02-14T03:41:11.781Z,1.53
2023-02-14T03:43:58.553Z,0.91
2023-02-14T03:46:43.222Z,0.96
2023-02-14T03:49:21.076Z,1.01
2023-02-14T03:51:55.469Z,1.25
2023-02-14T03:54:36.813Z,1.20
2023-02-14T03:57:53.241Z,1.21
2023-02-14T04:00:33.281Z,1.16
2023-02-14T04:06:15.361Z,1.69
2023-02-14T04:08:43.240Z,1.49
2023-02-14T04:11:11.647Z,1.64
2023-02-14T04:13:40.956Z,1.71
2023-02-14T04:16:15.362Z,1.69
2023-02-14T04:19:09.622Z,1.81
2023-02-14T04:21:50.082Z,1.69
2023-02-14T04:27:20.480Z,1.56
2023-02-14T04:30:12.237Z,1.83
2023-02-14T04:33:37.910Z,1.71
2023-02-14T04:44:19.560Z,1.62
2023-02-14T04:46:48.859Z,1.94
2023-02-14T04:49:19.981Z,1.90
2023-02-14T04:51:54.278Z,1.76
2023-02-14T04:54:28.610Z,1.49
2023-02-14T04:57:07.344Z,1.71
2023-02-14T05:08:16.255Z,1.39
2023-02-14T05:10:55.594Z,1.43
2023-02-14T05:13:44.352Z,1.73
2023-02-14T05:16:23.113Z,1.37
2023-02-14T05:19:00.486Z,1.31
2023-02-14T05:21:34.122Z,1.60
2023-02-14T05:24:12.798Z,1.25
2023-02-14T05:26:47.611Z,1.35
2023-02-14T05:29:21.320Z,1.32
2023-02-14T05:32:26.279Z,1.48
2023-02-14T05:35:08.987Z,1.58
2023-02-14T05:38:03.750Z,1.87
2023-02-14T05:40:35.110Z,1.64
2023-02-14T05:43:08.651Z,1.61
2023-02-14T05:45:38.807Z,1.62
2023-02-14T05:48:18.316Z,1.74
2023-02-14T05:50:48.545Z,1.35
2023-02-14T05:53:24.017Z,1.36
2023-02-14T05:55:50.866Z,1.61
2023-02-14T05:58:17.551Z,1.67
2023-02-14T06:11:01.465Z,1.53
2023-02-14T06:14:26.396Z,1.74
2023-02-14T06:20:21.816Z,1.72
2023-02-14T06:42:14.302Z,1.60
2023-02-14T07:00:17.357Z,1.50
2023-02-14T07:03:04.159Z,1.66
2023-02-14T07:06:24.212Z,1.73
2023-02-14T07:09:13.079Z,1.79
2023-02-14T07:12:31.099Z,1.71
2023-02-14T07:19:21.257Z,2.01
2023-02-14T07:22:14.525Z,1.91
2023-02-14T07:36:19.604Z,1.82
2023-02-14T07:39:29.442Z,1.90
2023-02-14T07:45:27.139Z,2.10
2023-02-14T07:49:20.497Z,2.14
2023-02-14T07:51:54.196Z,2.12
2023-02-14T07:54:52.074Z,2.20
2023-02-14T07:57:18.723Z,2.23
2023-02-14T07:59:45.480Z,2.28
2023-02-14T08:02:27.792Z,2.04
2023-02-14T08:05:04.705Z,2.36
2023-02-14T08:07:31.664Z,2.70
2023-02-14T08:10:14.317Z,2.32
2023-02-14T08:13:21.960Z,2.26
2023-02-14T08:16:04.509Z,2.50
2023-02-14T08:18:40.350Z,2.68
2023-02-14T08:21:11.126Z,2.43
2023-02-14T08:24:00.255Z,2.55
2023-02-14T08:26:29.207Z,2.61
2023-02-14T08:29:03.305Z,2.35
2023-02-14T08:31:36.449Z,2.51
2023-02-14T08:34:07.831Z,2.72
2023-02-14T08:36:35.137Z,2.97
2023-02-14T08:39:08.847Z,2.92
2023-02-14T08:41:40.572Z,2.64
2023-02-14T08:44:21.728Z,2.46
2023-02-14T08:47:08.617Z,2.70
2023-02-14T08:49:54.932Z,2.55
2023-02-14T08:52:23.540Z,2.79
2023-02-14T08:55:07.184Z,2.73
2023-02-14T09:05:15.469Z,2.74
2023-02-14T09:08:23.020Z,3.07
2023-02-14T09:11:34.335Z,3.12
2023-02-14T09:14:12.737Z,3.01
2023-02-14T09:17:51.874Z,3.18
2023-02-14T09:19:54.630Z,3.25
2023-02-14T09:26:21.556Z,3.51
2023-02-14T09:32:46.954Z,3.49
2023-02-14T09:35:19.516Z,3.52
2023-02-14T09:42:26.112Z,4.25
2023-02-14T09:45:48.186Z,3.69
2023-02-14T09:53:16.459Z,4.34
2023-02-14T10:16:29.354Z,4.48
2023-02-14T11:57:11.271Z,6.60
2023-02-14T12:04:58.992Z,7.01
2023-02-14T12:07:59.291Z,7.44
2023-02-14T12:31:27.570Z,8.22
2023-02-14T12:34:12.409Z,8.20
2023-02-14T12:37:26.066Z,8.81
2023-02-14T12:40:53.814Z,9.19
2023-02-14T12:44:54.173Z,9.44
2023-02-14T12:52:12.860Z,10.07
2023-02-14T12:54:43.501Z,10.31
2023-02-14T13:04:55.936Z,10.87
2023-02-14T13:07:55.915Z,11.05
2023-02-14T13:10:50.741Z,11.12
2023-02-14T13:13:57.326Z,11.56
2023-02-14T13:19:51.335Z,11.14
2023-02-14T13:22:22.127Z,11.77
2023-02-14T13:25:03.314Z,11.58
2023-02-14T13:27:56.060Z,11.65
2023-02-14T13:37:00.350Z,11.31
2023-02-14T13:39:38.326Z,11.50
2023-02-14T13:42:12.410Z,11.43
2023-02-14T13:44:39.250Z,11.79
2023-02-14T13:47:07.856Z,11.47
2023-02-14T13:49:47.008Z,11.16
2023-02-14T13:52:14.071Z,11.45
2023-02-14T13:54:47.035Z,11.40
2023-02-14T14:00:57.630Z,11.63
2023-02-14T14:03:31.451Z,11.87
2023-02-14T14:06:05.164Z,11.37
2023-02-14T14:08:36.223Z,11.49
2023-02-14T14:11:11.800Z,11.51
2023-02-14T14:13:46.720Z,11.89
2023-02-14T14:16:29.033Z,11.92
2023-02-14T14:19:21.183Z,11.98
2023-02-14T14:22:06.914Z,12.04
2023-02-14T14:24:57.535Z,11.65
2023-02-14T14:27:58.903Z,11.79
2023-02-14T14:30:36.689Z,11.70
2023-02-14T14:33:27.488Z,12.12
2023-02-14T14:36:00.099Z,12.08
2023-02-14T14:38:27.793Z,12.45
2023-02-14T14:40:59.773Z,12.41
2023-02-14T14:43:33.931Z,12.10
2023-02-14T14:46:26.015Z,12.14
2023-02-14T14:48:55.546Z,12.23
2023-02-14T14:51:26.149Z,12.95
2023-02-14T14:53:55.492Z,13.07
2023-02-14T14:56:29.582Z,12.92
2023-02-14T14:59:19.954Z,12.75
2023-02-14T15:01:46.962Z,13.08
2023-02-14T15:04:25.048Z,13.46
2023-02-14T15:06:52.806Z,13.50
2023-02-14T15:09:23.729Z,13.41
2023-02-14T15:12:11.423Z,13.60
2023-02-14T15:14:44.680Z,13.82
2023-02-14T15:17:21.017Z,14.10
2023-02-14T15:19:54.070Z,14.29
2023-02-14T15:22:47.315Z,14.35
2023-02-14T15:25:23.547Z,14.33
2023-02-14T15:27:54.077Z,14.92
2023-02-14T15:30:44.276Z,14.72
2023-02-14T15:33:13.974Z,14.99
2023-02-14T15:35:43.652Z,15.09
2023-02-14T15:38:17.023Z,15.23
2023-02-14T15:40:46.968Z,15.77
2023-02-14T15:43:20.258Z,15.99
2023-02-14T15:45:57.497Z,15.98
2023-02-14T15:48:39.163Z,15.95
2023-02-14T15:51:09.527Z,16.30
2023-02-14T15:53:41.925Z,16.47
2023-02-14T15:56:19.712Z,16.55
2023-02-14T15:58:47.521Z,16.39
2023-02-14T16:01:14.131Z,16.60
2023-02-14T16:03:49.414Z,16.30
2023-02-14T16:06:40.123Z,16.40
2023-02-14T16:09:24.472Z,16.23
2023-02-14T16:11:51.077Z,16.03
2023-02-14T16:14:37.241Z,15.94
2023-02-14T16:17:03.781Z,16.14
2023-02-14T16:19:42.460Z,15.92
2023-02-14T16:22:24.054Z,15.78
2023-02-14T16:24:51.079Z,15.55
2023-02-14T16:27:17.715Z,15.42
2023-02-14T16:29:50.951Z,15.27
2023-02-14T16:32:21.234Z,15.14
2023-02-14T16:38:04.086Z,14.56
2023-02-14T16:40:35.115Z,14.16
2023-02-14T16:43:20.169Z,14.38
2023-02-14T16:45:50.914Z,14.07
2023-02-14T16:48:31.820Z,13.45
2023-02-14T16:51:01.474Z,13.14
2023-02-14T16:53:29.136Z,13.21
2023-02-14T16:55:57.639Z,12.94
2023-02-14T16:58:51.636Z,12.66
2023-02-14T17:02:05.977Z,12.92
2023-02-14T17:04:50.974Z,12.27
2023-02-14T17:10:43.784Z,11.72
2023-02-14T17:14:04.599Z,11.64
2023-02-14T17:26:08.589Z,11.00
2023-02-14T17:34:55.052Z,10.46
2023-02-14T17:44:20.780Z,9.42
2023-02-14T22:37:11.814Z,2.85
2023-02-14T22:40:08.896Z,2.79
2023-02-14T22:47:15.495Z,2.55
2023-02-14T23:03:07.510Z,2.49
2023-02-14T23:05:38.619Z,3.07
2023-02-14T23:08:27.515Z,2.67
2023-02-14T23:16:14.316Z,2.49
2023-02-14T23:19:10.682Z,2.76
2023-02-14T23:25:23.078Z,2.89
2023-02-14T23:27:50.772Z,2.58
2023-02-14T23:30:20.265Z,2.63
2023-02-14T23:33:34.139Z,2.30
2023-02-14T23:36:08.363Z,2.29
2023-02-14T23:38:44.039Z,2.54
2023-02-14T23:41:30.288Z,2.16
2023-02-14T23:44:00.284Z,2.29
2023-02-14T23:46:31.176Z,2.50
2023-02-14T23:49:29.586Z,2.29
2023-02-14T23:51:56.329Z,2.13
